createdAt,value
2018-07-21T00:02:02.036Z,99778.19
2018-07-21T00:04:29.852Z,99776.48
2018-07-21T00:06:57.723Z,99780.55
2018-07-21T00:09:25.557Z,99790.38
2018-07-21T00:11:53.348Z,99792.52
2018-07-21T00:14:21.164Z,99796.04
2018-07-21T00:16:48.934Z,99797.77
2018-07-21T00:19:16.743Z,99797.03
2018-07-21T00:21:44.624Z,99800.66
2018-07-21T00:24:12.475Z,99799.98
2018-07-21T00:26:46.047Z,99797.95
2018-07-21T00:29:13.809Z,99801.27
2018-07-21T00:31:41.870Z,99797.03
2018-07-21T00:34:09.654Z,99793.77
2018-07-21T00:36:37.602Z,99797.84
2018-07-21T00:39:08.731Z,99797.95
2018-07-21T00:41:36.539Z,99795.64
2018-07-21T00:44:04.547Z,99790.65
2018-07-21T00:46:32.367Z,99794.25
2018-07-21T00:49:00.251Z,99791.57
2018-07-21T00:51:28.012Z,99790.70
2018-07-21T00:53:55.815Z,99790.62
2018-07-21T00:56:23.547Z,99788.41
2018-07-21T00:58:51.387Z,99790.70
2018-07-21T01:01:19.162Z,99793.73
2018-07-21T01:03:47.001Z,99798.08
2018-07-21T01:06:14.821Z,99801.83
2018-07-21T01:08:42.548Z,99806.42
2018-07-21T01:11:10.393Z,99799.05
2018-07-21T01:13:38.244Z,99796.52
2018-07-21T01:16:06.368Z,99793.59
2018-07-21T01:18:34.260Z,99793.59
2018-07-21T01:21:01.996Z,99796.09
2018-07-21T01:23:29.823Z,99792.25
2018-07-21T01:25:57.680Z,99794.51
2018-07-21T01:28:25.508Z,99796.86
2018-07-21T01:30:53.396Z,99798.09
2018-07-21T01:33:21.150Z,99789.28
2018-07-21T01:35:48.919Z,99787.06
2018-07-21T01:38:16.707Z,99781.18
2018-07-21T01:40:44.501Z,99772.41
2018-07-21T01:43:12.348Z,99769.57
2018-07-21T01:45:40.052Z,99778.28
2018-07-21T01:48:07.933Z,99783.30
2018-07-21T01:50:35.639Z,99781.18
2018-07-21T01:53:03.487Z,99784.30
2018-07-21T01:55:31.345Z,99785.70
2018-07-21T01:57:59.161Z,99789.63
2018-07-21T02:00:26.995Z,99791.74
2018-07-21T02:02:54.871Z,99787.41
2018-07-21T02:05:22.630Z,99789.06
2018-07-21T02:07:50.476Z,99785.67
2018-07-21T02:10:18.243Z,99781.66
2018-07-21T02:12:46.117Z,99791.73
2018-07-21T02:15:13.971Z,99791.36
2018-07-21T02:17:41.783Z,99793.16
2018-07-21T02:20:09.969Z,99790.63
2018-07-21T02:22:37.850Z,99790.38
2018-07-21T02:25:06.003Z,99789.14
2018-07-21T02:27:33.843Z,99785.80
2018-07-21T02:30:01.728Z,99787.52
2018-07-21T02:32:29.568Z,99783.64
2018-07-21T02:34:57.404Z,99784.59
2018-07-21T02:37:25.239Z,99787.53
2018-07-21T02:39:52.976Z,99790.14
2018-07-21T02:42:20.846Z,99788.02
2018-07-21T02:44:48.729Z,99785.33
2018-07-21T02:47:16.625Z,99789.64
2018-07-21T02:49:44.418Z,99779.73
2018-07-21T02:52:12.223Z,99776.26
2018-07-21T02:54:40.134Z,99777.08
2018-07-21T02:57:07.908Z,99777.73
2018-07-21T02:59:35.765Z,99772.47
2018-07-21T03:02:03.568Z,99771.95
2018-07-21T03:04:31.372Z,99770.14
2018-07-21T03:06:59.201Z,99768.67
2018-07-21T03:09:26.955Z,99770.91
2018-07-21T03:11:54.717Z,99770.82
2018-07-21T03:14:22.530Z,99773.68
2018-07-21T03:16:50.355Z,99775.48
2018-07-21T03:19:18.147Z,99778.95
2018-07-21T03:21:45.928Z,99774.38
2018-07-21T03:24:13.724Z,99776.50
2018-07-21T03:26:41.572Z,99774.47
2018-07-21T03:29:09.466Z,99784.58
2018-07-21T03:31:37.236Z,99786.72
2018-07-21T03:34:05.149Z,99800.47
2018-07-21T03:36:32.947Z,99797.80
2018-07-21T03:39:00.777Z,99802.47
2018-07-21T03:41:28.588Z,99804.37
2018-07-21T03:43:56.395Z,99806.75
2018-07-21T03:46:24.235Z,99809.09
2018-07-21T03:48:52.084Z,99805.51
2018-07-21T03:51:19.874Z,99809.27
2018-07-21T03:53:47.708Z,99809.20
2018-07-21T03:56:15.529Z,99808.30
2018-07-21T03:58:43.344Z,99812.14
2018-07-21T04:01:11.191Z,99807.65
2018-07-21T04:03:39.101Z,99806.41
2018-07-21T04:06:06.959Z,99805.35
2018-07-21T04:08:35.045Z,99799.11
2018-07-21T04:11:03.105Z,99800.40
2018-07-21T04:13:31.040Z,99799.78
2018-07-21T04:15:58.915Z,99803.95
2018-07-21T04:18:26.695Z,99810.56
2018-07-21T04:20:54.527Z,99803.78
2018-07-21T04:23:22.435Z,99806.80
2018-07-21T04:25:50.135Z,99804.14
2018-07-21T04:28:17.874Z,99806.42
2018-07-21T04:30:45.743Z,99802.75
2018-07-21T04:33:13.614Z,99810.45
2018-07-21T04:35:41.394Z,99807.11
2018-07-21T04:38:09.129Z,99809.04
2018-07-21T04:40:36.927Z,99807.59
2018-07-21T04:43:04.963Z,99804.98
2018-07-21T04:45:32.739Z,99807.12
2018-07-21T04:48:00.779Z,99808.30
2018-07-21T04:50:28.627Z,99802.50
2018-07-21T04:52:56.503Z,99804.47
2018-07-21T04:55:24.271Z,99805.77
2018-07-21T04:57:52.063Z,99803.61
2018-07-21T05:00:19.918Z,99801.08
2018-07-21T05:02:47.736Z,99811.39
2018-07-21T05:05:15.600Z,99808.06
2018-07-21T05:07:43.369Z,99810.03
2018-07-21T05:10:11.132Z,99804.46
2018-07-21T05:12:38.940Z,99803.42
2018-07-21T05:15:06.769Z,99804.56
2018-07-21T05:17:34.579Z,99810.87
2018-07-21T05:20:02.415Z,99809.56
2018-07-21T05:22:30.216Z,99813.57
2018-07-21T05:24:58.080Z,99818.56
2018-07-21T05:27:25.815Z,99820.17
2018-07-21T05:29:53.518Z,99822.46
2018-07-21T05:32:21.319Z,99824.66
2018-07-21T05:34:49.125Z,99838.35
2018-07-21T05:37:16.908Z,99846.86
2018-07-21T05:39:44.764Z,99851.67
2018-07-21T05:42:12.527Z,99857.34
2018-07-21T05:44:40.336Z,99857.08
2018-07-21T05:47:08.208Z,99855.53
2018-07-21T05:49:36.023Z,99850.74
2018-07-21T05:52:03.872Z,99858.72
2018-07-21T05:54:31.680Z,99860.52
2018-07-21T05:56:59.538Z,99864.81
2018-07-21T05:59:27.285Z,99864.16
2018-07-21T06:01:55.113Z,99865.28
2018-07-21T06:04:22.946Z,99864.19
2018-07-21T06:06:50.711Z,99868.55
2018-07-21T06:09:18.563Z,99869.34
2018-07-21T06:11:46.313Z,99871.55
2018-07-21T06:14:14.094Z,99871.92
2018-07-21T06:16:41.919Z,99870.84
2018-07-21T06:19:09.711Z,99875.92
2018-07-21T06:21:37.579Z,99873.94
2018-07-21T06:24:05.488Z,99883.84
2018-07-21T06:26:33.307Z,99879.74
2018-07-21T06:29:01.151Z,99887.66
2018-07-21T06:31:28.976Z,99883.32
2018-07-21T06:33:56.779Z,99885.20
2018-07-21T06:36:24.652Z,99888.11
2018-07-21T06:38:52.403Z,99896.77
2018-07-21T06:41:20.183Z,99895.73
2018-07-21T06:43:48.116Z,99896.69
2018-07-21T06:46:15.927Z,99893.76
2018-07-21T06:48:43.804Z,99903.91
2018-07-21T06:51:11.519Z,99899.12
2018-07-21T06:53:39.468Z,99904.94
2018-07-21T06:56:07.283Z,99898.95
2018-07-21T06:58:34.994Z,99899.76
2018-07-21T07:01:02.772Z,99901.61
2018-07-21T07:03:30.576Z,99906.98
2018-07-21T07:05:58.454Z,99902.94
2018-07-21T07:08:26.273Z,99907.36
2018-07-21T07:10:54.055Z,99903.08
2018-07-21T07:13:21.864Z,99896.61
2018-07-21T07:15:49.727Z,99897.32
2018-07-21T07:18:17.532Z,99899.91
2018-07-21T07:20:45.432Z,99900.22
2018-07-21T07:23:13.307Z,99905.51
2018-07-21T07:25:41.131Z,99901.16
2018-07-21T07:28:08.885Z,99899.38
2018-07-21T07:30:36.699Z,99898.72
2018-07-21T07:33:04.435Z,99899.98
2018-07-21T07:35:32.266Z,99898.69
2018-07-21T07:38:00.012Z,99895.52
2018-07-21T07:40:27.866Z,99903.33
2018-07-21T07:42:55.576Z,99893.94
2018-07-21T07:45:23.395Z,99893.19
2018-07-21T07:47:51.307Z,99901.12
2018-07-21T07:50:19.110Z,99900.97
2018-07-21T07:52:46.899Z,99900.15
2018-07-21T07:55:14.723Z,99898.09
2018-07-21T07:57:42.470Z,99907.77
2018-07-21T08:00:10.300Z,99912.55
2018-07-21T08:02:38.124Z,99904.28
2018-07-21T08:05:06.008Z,99908.50
2018-07-21T08:07:33.747Z,99902.23
2018-07-21T08:10:01.487Z,99909.69
2018-07-21T08:12:29.213Z,99913.69
2018-07-21T08:14:56.984Z,99914.19
2018-07-21T08:17:24.872Z,99916.56
2018-07-21T08:19:52.640Z,99924.19
2018-07-21T08:22:20.475Z,99925.30
2018-07-21T08:24:48.437Z,99924.59
2018-07-21T08:27:16.171Z,99927.02
2018-07-21T08:29:43.990Z,99925.73
2018-07-21T08:32:11.879Z,99925.95
2018-07-21T08:34:39.621Z,99927.23
2018-07-21T08:37:07.412Z,99927.91
2018-07-21T08:39:35.222Z,99934.59
2018-07-21T08:42:07.045Z,99930.28
2018-07-21T08:44:34.854Z,99932.92
2018-07-21T08:47:02.674Z,99930.28
2018-07-21T08:49:30.528Z,99931.64
2018-07-21T08:51:58.355Z,99936.84
2018-07-21T08:54:26.144Z,99934.91
2018-07-21T08:56:53.932Z,99933.84
2018-07-21T08:59:21.723Z,99928.76
2018-07-21T09:01:49.595Z,99930.95
2018-07-21T09:04:17.406Z,99928.77
2018-07-21T09:06:45.222Z,99935.77
2018-07-21T09:09:13.080Z,99934.28
2018-07-21T09:11:41.571Z,99932.91
2018-07-21T09:14:09.371Z,99945.24
2018-07-21T09:16:37.151Z,99941.84
2018-07-21T09:19:05.155Z,99944.31
2018-07-21T09:21:33.018Z,99952.91
2018-07-21T09:24:00.715Z,99948.23
2018-07-21T09:26:28.571Z,99953.07
2018-07-21T09:28:56.402Z,99953.02
2018-07-21T09:31:24.135Z,99957.06
2018-07-21T09:33:51.935Z,99956.95
2018-07-21T09:36:19.851Z,99965.02
2018-07-21T09:38:47.744Z,99971.48
2018-07-21T09:41:15.516Z,99979.22
2018-07-21T09:43:43.399Z,99982.55
2018-07-21T09:46:11.268Z,99981.86
2018-07-21T09:48:39.103Z,99983.75
2018-07-21T09:51:07.275Z,99988.06
2018-07-21T09:53:35.079Z,99988.86
2018-07-21T09:56:04.060Z,99991.18
2018-07-21T09:58:31.799Z,99999.66
2018-07-21T10:01:04.115Z,100004.62
2018-07-21T10:03:33.206Z,100004.52
2018-07-21T10:06:01.051Z,100008.72
2018-07-21T10:08:29.172Z,100012.67
2018-07-21T10:10:57.047Z,100020.00
2018-07-21T10:13:25.545Z,100027.09
2018-07-21T10:15:53.329Z,100023.06
2018-07-21T10:18:21.131Z,100039.50
2018-07-21T10:20:48.967Z,100038.34
2018-07-21T10:23:17.155Z,100038.45
2018-07-21T10:25:50.663Z,100041.61
2018-07-21T10:28:24.509Z,100041.73
2018-07-21T10:30:52.280Z,100042.13
2018-07-21T10:33:20.262Z,100049.66
2018-07-21T10:35:48.035Z,100048.77
2018-07-21T10:38:15.787Z,100055.42
2018-07-21T10:40:43.793Z,100055.50
2018-07-21T10:43:11.617Z,100056.90
2018-07-21T10:45:39.471Z,100057.23
2018-07-21T10:48:07.712Z,100056.28
2018-07-21T10:50:35.742Z,100052.36
2018-07-21T10:53:03.583Z,100063.77
2018-07-21T10:55:31.439Z,100061.05
2018-07-21T10:57:59.404Z,100058.78
2018-07-21T11:00:27.186Z,100061.51
2018-07-21T11:02:55.071Z,100067.37
2018-07-21T11:05:22.864Z,100068.96
2018-07-21T11:07:51.047Z,100070.98
2018-07-21T11:10:18.889Z,100068.23
2018-07-21T11:12:46.704Z,100067.13
2018-07-21T11:15:14.547Z,100067.13
2018-07-21T11:17:42.357Z,100073.67
2018-07-21T11:20:10.336Z,100069.53
2018-07-21T11:22:38.143Z,100072.89
2018-07-21T11:25:06.931Z,100072.66
2018-07-21T11:27:34.839Z,100076.55
2018-07-21T11:30:02.675Z,100075.41
2018-07-21T11:32:30.651Z,100073.95
2018-07-21T11:34:59.610Z,100080.01
2018-07-21T11:37:27.475Z,100080.40
2018-07-21T11:39:55.251Z,100081.89
2018-07-21T11:42:23.418Z,100087.31
2018-07-21T11:44:51.252Z,100086.97
2018-07-21T11:47:19.055Z,100088.22
2018-07-21T11:49:46.959Z,100091.48
2018-07-21T11:52:14.724Z,100086.97
2018-07-21T11:54:43.025Z,100094.59
2018-07-21T11:57:10.916Z,100096.12
2018-07-21T11:59:38.659Z,100090.55
2018-07-21T12:02:06.492Z,100096.98
2018-07-21T12:04:34.336Z,100101.44
2018-07-21T12:07:02.101Z,100097.79
2018-07-21T12:09:29.911Z,100101.66
2018-07-21T12:11:57.890Z,100098.88
2018-07-21T12:14:25.736Z,100101.02
2018-07-21T12:16:53.502Z,100099.23
2018-07-21T12:19:21.271Z,100102.79
2018-07-21T12:21:49.091Z,100104.23
2018-07-21T12:24:16.940Z,100106.27
2018-07-21T12:26:44.770Z,100104.38
2018-07-21T12:29:14.613Z,100101.97
2018-07-21T12:31:42.484Z,100096.36
2018-07-21T12:34:10.291Z,100100.28
2018-07-21T12:36:38.530Z,100099.96
2018-07-21T12:39:08.229Z,100097.30
2018-07-21T12:41:36.211Z,100096.70
2018-07-21T12:44:04.088Z,100090.95
2018-07-21T12:46:31.914Z,100088.78
2018-07-21T12:48:59.700Z,100093.28
2018-07-21T12:51:27.548Z,100086.45
2018-07-21T12:53:59.119Z,100090.64
2018-07-21T12:56:26.955Z,100087.22
2018-07-21T12:58:54.794Z,100080.96
2018-07-21T13:01:22.623Z,100077.17
2018-07-21T13:03:50.447Z,100079.73
2018-07-21T13:06:18.311Z,100076.58
2018-07-21T13:08:46.083Z,100079.20
2018-07-21T13:11:13.890Z,100080.13
2018-07-21T13:13:41.772Z,100068.42
2018-07-21T13:16:09.565Z,100075.64
2018-07-21T13:18:37.340Z,100067.60
2018-07-21T13:21:05.221Z,100070.91
2018-07-21T13:23:33.088Z,100061.27
2018-07-21T13:26:00.903Z,100065.66
2018-07-21T13:28:28.684Z,100065.11
2018-07-21T13:30:58.664Z,100063.27
2018-07-21T13:33:26.663Z,100063.63
2018-07-21T13:35:54.539Z,100055.83
2018-07-21T13:38:23.896Z,100049.88
2018-07-21T13:40:54.291Z,100062.61
2018-07-21T13:43:23.168Z,100066.21
2018-07-21T13:45:51.027Z,100066.77
2018-07-21T13:48:23.162Z,100066.84
2018-07-21T13:50:56.259Z,100058.54
2018-07-21T13:53:24.213Z,100057.08
2018-07-21T13:55:52.044Z,100055.55
2018-07-21T13:58:21.195Z,100053.58
2018-07-21T14:00:49.122Z,100051.33
2018-07-21T14:03:17.146Z,100050.13
2018-07-21T14:05:49.558Z,100040.81
2018-07-21T14:08:18.434Z,100041.16
2018-07-21T14:10:46.934Z,100036.67
2018-07-21T14:13:15.064Z,100038.27
2018-07-21T14:15:47.744Z,100035.19
2018-07-21T14:18:22.494Z,100034.18
2018-07-21T14:20:51.327Z,100039.38
2018-07-21T14:23:19.172Z,100038.28
2018-07-21T14:25:47.092Z,100030.79
2018-07-21T14:28:15.941Z,100028.96
2018-07-21T14:30:48.356Z,100020.08
2018-07-21T14:33:18.989Z,100024.52
2018-07-21T14:35:46.875Z,100019.00
2018-07-21T14:38:22.756Z,100023.91
2018-07-21T14:40:55.568Z,100026.44
2018-07-21T14:43:23.432Z,100024.27
2018-07-21T14:45:55.145Z,100017.55
2018-07-21T14:48:24.194Z,100021.41
2018-07-21T14:50:53.734Z,100009.73
2018-07-21T14:53:29.587Z,100007.65
2018-07-21T14:55:59.508Z,100008.47
2018-07-21T14:58:27.411Z,100011.05
2018-07-21T15:00:55.187Z,100007.04
2018-07-21T15:03:28.814Z,100004.91
2018-07-21T15:05:57.003Z,100002.73
2018-07-21T15:08:24.835Z,100005.12
2018-07-21T15:10:58.630Z,100008.75
2018-07-21T15:13:36.861Z,100005.50
2018-07-21T15:16:05.228Z,100000.81
2018-07-21T15:18:33.139Z,99999.92
2018-07-21T15:21:00.941Z,99993.09
2018-07-21T15:23:28.740Z,99992.99
2018-07-21T15:25:56.569Z,100003.44
2018-07-21T15:28:24.407Z,99999.44
2018-07-21T15:30:52.262Z,99997.65
2018-07-21T15:33:20.111Z,100003.14
2018-07-21T15:35:48.802Z,100005.48
2018-07-21T15:38:16.847Z,100005.75
2018-07-21T15:40:44.691Z,99999.33
2018-07-21T15:43:12.479Z,100002.36
2018-07-21T15:45:40.296Z,100007.25
2018-07-21T15:48:08.152Z,99997.11
2018-07-21T15:50:35.943Z,100005.78
2018-07-21T15:53:03.820Z,99993.78
2018-07-21T15:55:34.381Z,100009.16
2018-07-21T15:58:02.544Z,100006.13
2018-07-21T16:00:30.388Z,100008.10
2018-07-21T16:02:58.231Z,100000.14
2018-07-21T16:05:26.036Z,100000.81
2018-07-21T16:07:54.276Z,100004.44
2018-07-21T16:10:22.308Z,100006.23
2018-07-21T16:12:50.076Z,100011.44
2018-07-21T16:15:17.903Z,100006.22
2018-07-21T16:17:45.670Z,100013.14
2018-07-21T16:20:13.490Z,100007.27
2018-07-21T16:22:41.275Z,100005.05
2018-07-21T16:25:09.043Z,100003.27
2018-07-21T16:27:36.851Z,100003.64
2018-07-21T16:30:05.084Z,100004.71
2018-07-21T16:32:32.912Z,100002.78
2018-07-21T16:35:00.776Z,100005.42
2018-07-21T16:37:28.659Z,100009.72
2018-07-21T16:39:56.457Z,100004.64
2018-07-21T16:42:24.327Z,99999.66
2018-07-21T16:44:52.139Z,100007.48
2018-07-21T16:47:19.908Z,100007.12
2018-07-21T16:49:47.784Z,99998.69
2018-07-21T16:52:15.697Z,100002.30
2018-07-21T16:54:43.604Z,99994.83
2018-07-21T16:57:11.394Z,99997.42
2018-07-21T16:59:39.205Z,99995.02
2018-07-21T17:02:07.080Z,99987.08
2018-07-21T17:04:34.856Z,99991.17
2018-07-21T17:07:02.617Z,99981.72
2018-07-21T17:09:30.412Z,99988.15
2018-07-21T17:11:58.195Z,99984.07
2018-07-21T17:14:26.013Z,99983.48
2018-07-21T17:16:53.780Z,99989.42
2018-07-21T17:19:21.493Z,99982.67
2018-07-21T17:21:49.326Z,99978.92
2018-07-21T17:24:17.115Z,99975.55
2018-07-21T17:26:44.888Z,99984.20
2018-07-21T17:29:12.764Z,99975.08
2018-07-21T17:31:40.605Z,99976.70
2018-07-21T17:34:08.458Z,99973.61
2018-07-21T17:36:36.246Z,99977.13
2018-07-21T17:39:07.490Z,99966.98
2018-07-21T17:41:36.378Z,99963.00
2018-07-21T17:44:04.582Z,99972.56
2018-07-21T17:46:32.457Z,99977.59
2018-07-21T17:49:00.347Z,99978.87
2018-07-21T17:51:28.219Z,99970.70
2018-07-21T17:53:55.960Z,99971.88
2018-07-21T17:56:23.807Z,99970.83
2018-07-21T17:58:51.608Z,99969.07
2018-07-21T18:01:19.504Z,99973.37
2018-07-21T18:03:47.257Z,99975.26
2018-07-21T18:06:15.108Z,99977.91
2018-07-21T18:08:42.888Z,99981.86
2018-07-21T18:11:10.723Z,99984.77
2018-07-21T18:13:38.551Z,99985.46
2018-07-21T18:16:07.814Z,99986.14
2018-07-21T18:18:35.589Z,99978.55
2018-07-21T18:21:03.471Z,99987.98
2018-07-21T18:23:31.287Z,99990.31
2018-07-21T18:25:59.144Z,99991.08
2018-07-21T18:28:26.987Z,99994.72
2018-07-21T18:30:54.766Z,99998.57
2018-07-21T18:33:22.634Z,100008.17
2018-07-21T18:35:50.494Z,100001.30
2018-07-21T18:38:18.271Z,100009.45
2018-07-21T18:40:46.068Z,100005.76
2018-07-21T18:43:13.902Z,100008.02
2018-07-21T18:45:41.731Z,100010.86
2018-07-21T18:48:09.555Z,100009.05
2018-07-21T18:50:37.364Z,100009.53
2018-07-21T18:53:05.171Z,100009.13
2018-07-21T18:55:33.004Z,100016.30
2018-07-21T18:58:01.348Z,100015.75
2018-07-21T19:00:29.153Z,100017.56
2018-07-21T19:02:56.963Z,100011.88
2018-07-21T19:05:24.827Z,100011.06
2018-07-21T19:07:53.573Z,100015.67
2018-07-21T19:10:21.703Z,100011.34
2018-07-21T19:12:50.988Z,100018.56
2018-07-21T19:15:24.692Z,100014.13
2018-07-21T19:17:52.733Z,100022.11
2018-07-21T19:20:26.300Z,100024.54
2018-07-21T19:22:54.171Z,100020.22
2018-07-21T19:25:28.105Z,100031.55
2018-07-21T19:27:56.275Z,100025.91
2018-07-21T19:30:27.366Z,100026.28
2018-07-21T19:32:57.215Z,100036.17
2018-07-21T19:35:25.308Z,100038.41
2018-07-21T19:37:53.083Z,100037.58
2018-07-21T19:40:20.847Z,100039.66
2018-07-21T19:42:48.807Z,100047.27
2018-07-21T19:45:16.571Z,100040.22
2018-07-21T19:47:44.447Z,100047.87
2018-07-21T19:50:12.284Z,100037.84
2018-07-21T19:52:40.722Z,100039.24
2018-07-21T19:55:08.923Z,100039.83
2018-07-21T19:57:37.387Z,100040.77
2018-07-21T20:00:05.953Z,100037.04
2018-07-21T20:02:38.395Z,100052.61
2018-07-21T20:05:07.469Z,100056.42
2018-07-21T20:07:35.308Z,100056.56
2018-07-21T20:10:05.200Z,100056.80
2018-07-21T20:12:33.057Z,100062.67
2018-07-21T20:15:00.780Z,100065.52
2018-07-21T20:17:28.684Z,100068.55
2018-07-21T20:19:56.456Z,100069.42
2018-07-21T20:22:24.639Z,100069.27
2018-07-21T20:24:58.022Z,100071.37
2018-07-21T20:27:26.063Z,100070.47
2018-07-21T20:29:54.322Z,100071.81
2018-07-21T20:32:26.571Z,100073.56
2018-07-21T20:34:56.221Z,100076.23
2018-07-21T20:37:24.129Z,100074.16
2018-07-21T20:39:51.959Z,100080.95
2018-07-21T20:42:21.328Z,100075.81
2018-07-21T20:44:49.145Z,100078.16
2018-07-21T20:47:22.402Z,100072.59
2018-07-21T20:49:50.143Z,100071.91
2018-07-21T20:52:21.261Z,100073.88
2018-07-21T20:54:53.143Z,100076.04
2018-07-21T20:57:21.553Z,100075.95
2018-07-21T20:59:49.845Z,100078.13
2018-07-21T21:02:17.655Z,100078.78
2018-07-21T21:04:45.547Z,100084.47
2018-07-21T21:07:13.388Z,100085.41
2018-07-21T21:09:47.733Z,100082.38
2018-07-21T21:12:16.017Z,100085.61
2018-07-21T21:14:43.744Z,100094.81
2018-07-21T21:17:12.210Z,100097.47
2018-07-21T21:19:40.665Z,100087.89
2018-07-21T21:22:08.507Z,100093.38
2018-07-21T21:24:36.395Z,100097.22
2018-07-21T21:27:04.198Z,100096.28
2018-07-21T21:29:32.063Z,100096.80
2018-07-21T21:31:59.890Z,100096.23
2018-07-21T21:34:27.805Z,100101.92
2018-07-21T21:36:55.565Z,100102.30
2018-07-21T21:39:27.937Z,100104.64
2018-07-21T21:41:56.449Z,100108.92
2018-07-21T21:44:24.400Z,100104.01
2018-07-21T21:46:52.196Z,100105.83
2018-07-21T21:49:19.931Z,100110.75
2018-07-21T21:51:47.854Z,100111.78
2018-07-21T21:54:15.683Z,100114.23
2018-07-21T21:56:49.031Z,100112.34
2018-07-21T21:59:16.944Z,100118.02
2018-07-21T22:01:51.200Z,100119.09
2018-07-21T22:04:19.072Z,100122.37
2018-07-21T22:06:46.835Z,100117.84
2018-07-21T22:09:14.660Z,100117.78
2018-07-21T22:11:42.527Z,100116.46
2018-07-21T22:14:10.368Z,100124.14
2018-07-21T22:16:39.797Z,100122.13
2018-07-21T22:19:07.733Z,100122.02
2018-07-21T22:21:35.538Z,100128.50
2018-07-21T22:24:03.372Z,100119.70
2018-07-21T22:26:31.655Z,100128.69
2018-07-21T22:29:04.719Z,100128.15
2018-07-21T22:31:33.200Z,100129.18
2018-07-21T22:34:00.960Z,100127.10
2018-07-21T22:36:28.767Z,100142.33
2018-07-21T22:38:56.639Z,100132.61
2018-07-21T22:41:25.077Z,100140.37
2018-07-21T22:43:52.836Z,100140.59
2018-07-21T22:46:20.646Z,100139.86
2018-07-21T22:48:48.512Z,100140.78
2018-07-21T22:51:16.351Z,100146.97
2018-07-21T22:53:44.144Z,100148.10
2018-07-21T22:56:11.890Z,100146.40
2018-07-21T22:58:39.778Z,100148.20
2018-07-21T23:01:07.637Z,100145.27
2018-07-21T23:03:35.442Z,100141.73
2018-07-21T23:06:03.355Z,100144.38
2018-07-21T23:08:31.154Z,100139.71
2018-07-21T23:10:58.967Z,100139.23
2018-07-21T23:13:26.787Z,100137.00
2018-07-21T23:15:54.588Z,100138.48
2018-07-21T23:18:22.462Z,100134.82
2018-07-21T23:20:50.336Z,100137.73
2018-07-21T23:23:18.121Z,100136.18
2018-07-21T23:25:45.920Z,100127.22
2018-07-21T23:28:13.769Z,100125.73
2018-07-21T23:30:41.539Z,100122.77
2018-07-21T23:33:09.404Z,100128.27
2018-07-21T23:35:37.202Z,100120.09
2018-07-21T23:38:05.048Z,100121.73
2018-07-21T23:40:32.827Z,100121.73
2018-07-21T23:43:00.623Z,100121.08
2018-07-21T23:45:28.443Z,100121.83
2018-07-21T23:47:56.259Z,100116.84
2018-07-21T23:50:24.131Z,100118.42
2018-07-21T23:52:51.924Z,100114.57
2018-07-21T23:55:19.791Z,100113.81
2018-07-21T23:57:47.534Z,100119.45
